Clark, Colorado
Current Conditions -  °F | °C
As of 2:35 PM on Saturday 25 Oct 2014 (Local Time) from KSBS Reporting Station
Clear Clear  
Wind Chill: 69°   Ceiling: Unl
Heat Index: 69°   Visibility: 10mi
Dew Point: 22°   Wind: 3mph
Humidity: 17%   Direction: 230°SW
Pressure: 30.21"   Gusts: NA
Location:  40.76°N, 106.94°W
Report Text: KSBS 252035Z AUTO 23003KT 10SM CLR 21/M05 A3021 RMK AO1 T02081054
Loading
Personal Weather Stations






























Interactive Weather Map
Tropical Storm Tracking
New forecast layout! Learn more

10-Day Weather Forecast

Advertisements
Track Severe Weather on mobile